Accueil
METAR-TAF:

METAR-TAF

Aéroports :

Yeovilton, Angleterre

latitude: 51-00N, longitude: 002-38W, altitude: 23 m

Observation

Le bulletin a été fait il y a 1 heure et 3 minutes, à 00:50 UTC
Vent 2 kt de ouest
Température 0°C
Humidité 86%
Pression 1030 hPa
Visibilité 10 km ou plus

METAR: EGDY 170050Z AUTO 28002KT 9999 NCD M00/M02 Q1030

Heure: 02:53 (01:53 UTC)

Prévision

Le bulletin a été fait il y a 18 heures et 23 minutes, à 07:30 UTC
Prévision valable du 16 à 09 UTC au 16 à 18 UTC
Vent 5 kt de est/nord-est
Visibilité 10 km ou plus
Nuages épars à une hauteur de 4500 ft

TAF: EGDY 160730Z 1609/1618 06005KT 9999 SCT045

Observations et prévisions météorologiques de plus de 4000 aéroports (messages METAR et TAF).

Les stations disponibles sont représentées par des disques jaunes et rouges sur la carte.

Passer la souris dessus pour voir le nom de la station.

Cliquer dessus pour voir les observations et prévisions météorologiques.

Pour changer de carte: cliquez sur les boutons verts avec une croix noire pour zoomer, sur le bouton vert avec un tiret pour effectuer un zoom arrière, ou sur les flèches vertes pour les cartes adjacentes.


METAR-TAF: